Time;durP1;ratioP1;P1;durP2;ratioP2;P2;SDS_P1;SDS_P2;PMS_P1;PMS_P2;Temp;Humidity;BMP_temperature;BMP_pressure;BME280_temperature;BME280_humidity;BME280_pressure;Samples;Min_cycle;Max_cycle;Signal;HPM_P1;HPM_P2
2023/12/10 00:01:25;;;;;;;4.35;2.90;;;;;;;;;;5108058;28;20466;-57
2023/12/10 00:03:56;;;;;;;6.03;3.30;;;;;;;;;;5123132;29;20411;-58
2023/12/10 00:06:27;;;;;;;5.70;3.13;;;;;;;;;;5107032;29;20039;-58
2023/12/10 00:08:58;;;;;;;5.57;3.08;;;;;;;;;;5123064;28;20035;-58
2023/12/10 00:11:30;;;;;;;3.80;2.40;;;;;;;;;;5122629;28;20049;-58
2023/12/10 00:14:01;;;;;;;4.43;2.67;;;;;;;;;;5106964;29;20057;-58
2023/12/10 00:16:33;;;;;;;5.25;2.60;;;;;;;;;;5139324;28;20067;-58
2023/12/10 00:19:04;;;;;;;4.55;2.78;;;;;;;;;;5123901;28;20051;-58
2023/12/10 00:21:35;;;;;;;3.70;2.15;;;;;;;;;;5133514;28;20101;-58
2023/12/10 00:24:06;;;;;;;4.37;2.40;;;;;;;;;;5122030;28;20094;-57
2023/12/10 00:26:37;;;;;;;5.33;2.93;;;;;;;;;;5122341;28;20049;-59
2023/12/10 00:29:08;;;;;;;4.53;2.90;;;;;;;;;;5122196;28;20039;-58
2023/12/10 00:31:43;;;;;;;5.88;3.00;;;;;;;;;;5122085;28;20039;-58
2023/12/10 00:34:14;;;;;;;4.85;3.05;;;;;;;;;;5122463;29;20082;-58
2023/12/10 00:36:45;;;;;;;7.95;3.22;;;;;;;;;;5110704;28;20395;-59
2023/12/10 00:39:16;;;;;;;5.20;3.10;;;;;;;;;;5106903;28;20529;-59
2023/12/10 00:41:48;;;;;;;5.55;3.05;;;;;;;;;;5106107;28;20046;-60
2023/12/10 00:44:19;;;;;;;4.57;2.90;;;;;;;;;;5122101;28;20085;-58
2023/12/10 00:46:50;;;;;;;5.65;3.20;;;;;;;;;;5125223;28;20412;-59
2023/12/10 00:49:21;;;;;;;7.63;3.63;;;;;;;;;;5124599;28;20127;-58
2023/12/10 00:51:53;;;;;;;4.82;3.08;;;;;;;;;;5132281;28;20054;-58
2023/12/10 00:54:25;;;;;;;4.40;2.97;;;;;;;;;;5122405;28;20055;-58
2023/12/10 00:56:56;;;;;;;7.53;3.20;;;;;;;;;;5122387;28;20559;-58
2023/12/10 00:59:27;;;;;;;4.40;3.07;;;;;;;;;;5123510;28;20062;-59
2023/12/10 01:01:58;;;;;;;4.25;3.00;;;;;;;;;;5128513;28;20043;-58
2023/12/10 01:04:29;;;;;;;4.23;3.20;;;;;;;;;;5105742;28;20039;-58
2023/12/10 01:07:01;;;;;;;4.63;3.28;;;;;;;;;;5121924;28;20035;-58
2023/12/10 01:09:34;;;;;;;5.23;3.13;;;;;;;;;;5113916;28;20734;-59
2023/12/10 01:12:07;;;;;;;3.78;3.22;;;;;;;;;;5127207;28;20049;-59
2023/12/10 01:14:38;;;;;;;3.85;3.28;;;;;;;;;;5123195;28;20046;-59
2023/12/10 01:17:10;;;;;;;6.95;3.63;;;;;;;;;;5106241;29;20356;-60
2023/12/10 01:19:43;;;;;;;5.60;3.47;;;;;;;;;;5124316;28;20415;-60
2023/12/10 01:22:14;;;;;;;4.07;3.40;;;;;;;;;;5138104;28;20538;-59
2023/12/10 01:24:45;;;;;;;6.95;3.42;;;;;;;;;;5115275;28;20047;-60
2023/12/10 01:27:16;;;;;;;5.53;3.17;;;;;;;;;;5129172;28;20413;-60
2023/12/10 01:29:48;;;;;;;5.03;3.30;;;;;;;;;;5123874;28;20043;-59
2023/12/10 01:32:19;;;;;;;7.13;3.88;;;;;;;;;;5106841;28;20047;-58
2023/12/10 01:34:50;;;;;;;5.87;3.60;;;;;;;;;;5129794;28;20066;-59
2023/12/10 01:37:21;;;;;;;4.68;3.63;;;;;;;;;;5129346;28;20482;-58
2023/12/10 01:39:52;;;;;;;4.68;3.15;;;;;;;;;;5121970;28;20356;-59
2023/12/10 01:42:23;;;;;;;4.72;3.15;;;;;;;;;;5137624;28;20043;-59
2023/12/10 01:44:54;;;;;;;4.70;3.25;;;;;;;;;;5144879;28;20061;-58
2023/12/10 01:47:26;;;;;;;5.65;3.50;;;;;;;;;;5121671;28;20038;-59
2023/12/10 01:49:57;;;;;;;4.75;3.00;;;;;;;;;;5105733;29;20122;-59
2023/12/10 01:52:28;;;;;;;6.80;4.07;;;;;;;;;;5124109;28;20035;-59
2023/12/10 01:55:01;;;;;;;5.23;3.23;;;;;;;;;;5105297;28;20046;-59
2023/12/10 01:57:36;;;;;;;6.25;3.38;;;;;;;;;;5123699;28;20036;-58
2023/12/10 02:00:08;;;;;;;6.00;3.40;;;;;;;;;;5124975;28;20035;-58
2023/12/10 02:02:40;;;;;;;7.80;3.35;;;;;;;;;;5125398;28;20126;-58
2023/12/10 02:05:11;;;;;;;5.10;3.35;;;;;;;;;;5142094;28;20039;-58
2023/12/10 02:07:43;;;;;;;7.40;3.23;;;;;;;;;;5111718;29;20050;-58
2023/12/10 02:10:14;;;;;;;5.55;3.17;;;;;;;;;;5125939;28;20297;-58
2023/12/10 02:12:46;;;;;;;4.07;3.20;;;;;;;;;;5122168;28;20043;-58
2023/12/10 02:15:18;;;;;;;6.68;3.45;;;;;;;;;;5130848;28;20043;-58
2023/12/10 02:17:49;;;;;;;4.35;3.10;;;;;;;;;;5133801;28;20101;-58
2023/12/10 02:20:20;;;;;;;5.97;3.25;;;;;;;;;;5127031;28;20069;-58
2023/12/10 02:23:10;;;;;;;4.65;3.47;;;;;;;;;;5136456;28;20417;-58
2023/12/10 02:25:41;;;;;;;6.45;3.85;;;;;;;;;;5129502;28;20039;-59
2023/12/10 02:28:16;;;;;;;6.57;3.88;;;;;;;;;;5132354;28;20691;-58
2023/12/10 02:30:47;;;;;;;7.50;4.25;;;;;;;;;;5127680;28;20035;-58
2023/12/10 02:33:18;;;;;;;7.18;3.97;;;;;;;;;;5129019;28;20047;-58
2023/12/10 02:35:50;;;;;;;10.03;4.83;;;;;;;;;;5140745;28;20081;-58
2023/12/10 02:38:21;;;;;;;8.50;4.83;;;;;;;;;;5131628;28;20077;-59
2023/12/10 02:40:52;;;;;;;6.77;4.57;;;;;;;;;;5127053;28;20047;-59
2023/12/10 02:43:23;;;;;;;7.20;5.03;;;;;;;;;;5134493;28;20051;-59
2023/12/10 02:45:54;;;;;;;8.70;4.90;;;;;;;;;;5115752;28;20049;-59
2023/12/10 02:48:26;;;;;;;9.37;4.97;;;;;;;;;;5108636;29;20493;-59
2023/12/10 02:50:57;;;;;;;9.30;4.57;;;;;;;;;;5131598;28;20038;-59
2023/12/10 02:53:28;;;;;;;9.00;5.20;;;;;;;;;;5124037;28;20078;-59
2023/12/10 02:55:59;;;;;;;6.83;4.87;;;;;;;;;;5124310;28;20090;-58
2023/12/10 02:58:30;;;;;;;11.07;5.20;;;;;;;;;;5123926;28;20053;-58
2023/12/10 03:01:02;;;;;;;10.23;5.30;;;;;;;;;;5124203;28;20047;-57
2023/12/10 03:03:33;;;;;;;12.00;5.73;;;;;;;;;;5123498;28;20047;-57
2023/12/10 03:06:06;;;;;;;9.18;4.57;;;;;;;;;;5125934;28;20455;-58
2023/12/10 03:08:37;;;;;;;10.13;5.47;;;;;;;;;;5110082;28;20042;-58
2023/12/10 03:11:08;;;;;;;11.80;4.90;;;;;;;;;;5131552;28;20131;-58
2023/12/10 03:13:40;;;;;;;8.90;4.87;;;;;;;;;;5107555;29;20057;-58
2023/12/10 03:16:11;;;;;;;9.33;4.97;;;;;;;;;;5106823;28;20505;-58
2023/12/10 03:18:42;;;;;;;7.55;5.45;;;;;;;;;;5140008;28;20498;-58
2023/12/10 03:21:13;;;;;;;8.25;4.50;;;;;;;;;;5132183;28;20042;-59
2023/12/10 03:23:44;;;;;;;6.78;4.53;;;;;;;;;;5123564;28;20047;-59
2023/12/10 03:26:16;;;;;;;8.10;4.63;;;;;;;;;;5132036;28;20542;-59
2023/12/10 03:28:47;;;;;;;7.22;4.55;;;;;;;;;;5113558;28;20035;-59
2023/12/10 03:31:19;;;;;;;7.90;5.05;;;;;;;;;;5125447;28;20043;-57
2023/12/10 03:33:51;;;;;;;8.30;4.97;;;;;;;;;;5134983;28;20039;-59
2023/12/10 03:36:23;;;;;;;9.63;4.80;;;;;;;;;;5125270;28;20292;-58
2023/12/10 03:38:54;;;;;;;8.73;4.82;;;;;;;;;;5123656;28;20050;-58
2023/12/10 03:41:25;;;;;;;11.27;5.30;;;;;;;;;;5123384;28;20390;-57
2023/12/10 03:43:57;;;;;;;8.98;4.60;;;;;;;;;;5123332;28;20043;-58
2023/12/10 03:46:28;;;;;;;9.53;4.30;;;;;;;;;;5123565;28;20047;-57
2023/12/10 03:48:59;;;;;;;7.57;4.00;;;;;;;;;;5122927;28;20455;-57
2023/12/10 03:51:30;;;;;;;9.95;4.97;;;;;;;;;;5123399;28;20597;-57
2023/12/10 03:54:02;;;;;;;9.18;5.40;;;;;;;;;;5122801;28;20047;-57
2023/12/10 03:56:33;;;;;;;8.43;4.28;;;;;;;;;;5139068;28;20055;-57
2023/12/10 03:59:04;;;;;;;7.77;4.53;;;;;;;;;;5139270;28;20335;-59
2023/12/10 04:01:35;;;;;;;6.90;5.07;;;;;;;;;;5130414;28;20093;-58
2023/12/10 04:04:06;;;;;;;10.30;4.90;;;;;;;;;;5139019;28;20035;-59
2023/12/10 04:06:41;;;;;;;7.13;4.90;;;;;;;;;;5123507;28;20134;-59
2023/12/10 04:09:12;;;;;;;7.78;4.72;;;;;;;;;;5127915;28;20050;-58
2023/12/10 04:11:43;;;;;;;8.05;4.65;;;;;;;;;;5129033;28;20130;-58
2023/12/10 04:14:14;;;;;;;6.63;3.97;;;;;;;;;;5138698;28;20490;-56
2023/12/10 04:16:46;;;;;;;6.20;3.72;;;;;;;;;;5106837;28;20106;-58
2023/12/10 04:19:17;;;;;;;5.20;3.80;;;;;;;;;;5116820;28;20096;-57
2023/12/10 04:21:48;;;;;;;8.83;4.13;;;;;;;;;;5124969;28;20126;-57
2023/12/10 04:24:19;;;;;;;8.20;4.00;;;;;;;;;;5112152;29;20074;-57
2023/12/10 04:26:51;;;;;;;5.45;3.38;;;;;;;;;;5150887;28;20043;-57
2023/12/10 04:29:22;;;;;;;4.43;3.53;;;;;;;;;;5106538;28;20602;-56
2023/12/10 04:31:54;;;;;;;4.43;3.10;;;;;;;;;;5105993;28;20075;-57
2023/12/10 04:34:25;;;;;;;;;;;;;;;;;;5116547;28;20094;-56
2023/12/10 04:36:56;;;;;;;6.55;3.50;;;;;;;;;;5129027;28;19949;-57
2023/12/10 04:39:27;;;;;;;6.00;3.60;;;;;;;;;;5124739;28;20035;-58
2023/12/10 04:41:59;;;;;;;6.32;4.13;;;;;;;;;;5122338;28;20078;-56
2023/12/10 04:44:30;;;;;;;8.27;4.07;;;;;;;;;;5138460;28;20062;-58
2023/12/10 04:47:01;;;;;;;9.27;4.45;;;;;;;;;;5122324;28;20192;-58
2023/12/10 04:49:32;;;;;;;8.95;4.55;;;;;;;;;;5122401;28;20035;-58
2023/12/10 04:52:03;;;;;;;7.35;4.22;;;;;;;;;;5130071;28;20062;-58
2023/12/10 04:54:35;;;;;;;6.45;4.32;;;;;;;;;;5127846;28;20046;-58
2023/12/10 04:57:06;;;;;;;8.53;4.27;;;;;;;;;;5113581;28;20051;-58
2023/12/10 04:59:37;;;;;;;5.43;3.63;;;;;;;;;;5129800;28;20285;-57
2023/12/10 05:02:08;;;;;;;4.97;3.47;;;;;;;;;;5127839;28;20435;-57
2023/12/10 05:04:39;;;;;;;6.78;3.85;;;;;;;;;;5143880;28;20402;-57
2023/12/10 05:07:10;;;;;;;7.57;4.38;;;;;;;;;;5122298;28;20201;-57
2023/12/10 05:09:42;;;;;;;5.57;3.65;;;;;;;;;;5108227;28;20122;-56
2023/12/10 05:12:13;;;;;;;5.30;3.83;;;;;;;;;;5127503;28;20073;-57
2023/12/10 05:14:44;;;;;;;5.75;3.70;;;;;;;;;;5137673;28;20118;-56
2023/12/10 05:17:15;;;;;;;8.25;4.47;;;;;;;;;;5121924;28;20055;-57
2023/12/10 05:19:46;;;;;;;15.13;6.53;;;;;;;;;;5116054;28;20047;-57
2023/12/10 05:22:17;;;;;;;8.38;5.70;;;;;;;;;;5105721;28;20039;-58
2023/12/10 05:24:48;;;;;;;12.05;6.38;;;;;;;;;;5134596;28;20039;-58
2023/12/10 05:27:20;;;;;;;13.55;6.80;;;;;;;;;;5125637;28;20131;-59
2023/12/10 05:29:51;;;;;;;16.30;7.45;;;;;;;;;;5129616;28;20039;-60
2023/12/10 05:32:22;;;;;;;14.05;7.55;;;;;;;;;;5123701;28;20050;-59
2023/12/10 05:34:53;;;;;;;14.93;7.78;;;;;;;;;;5131953;28;20094;-59
2023/12/10 05:37:24;;;;;;;20.83;8.10;;;;;;;;;;5141154;28;20053;-59
2023/12/10 05:39:55;;;;;;;17.42;7.40;;;;;;;;;;5133439;28;20043;-59
2023/12/10 05:42:27;;;;;;;14.07;7.32;;;;;;;;;;5116093;29;20356;-59
2023/12/10 05:44:58;;;;;;;18.23;7.95;;;;;;;;;;5125405;28;20054;-57
2023/12/10 05:47:29;;;;;;;21.58;9.05;;;;;;;;;;5130910;28;20489;-58
2023/12/10 05:50:01;;;;;;;17.80;8.55;;;;;;;;;;5127980;28;20047;-58
2023/12/10 05:52:32;;;;;;;19.15;8.30;;;;;;;;;;5146679;28;20039;-57
2023/12/10 05:55:03;;;;;;;16.55;8.48;;;;;;;;;;5128847;28;20106;-58
2023/12/10 05:57:34;;;;;;;19.87;8.83;;;;;;;;;;5137418;28;20537;-58
2023/12/10 06:00:06;;;;;;;20.13;8.25;;;;;;;;;;5125380;28;20289;-59
2023/12/10 06:02:37;;;;;;;20.75;8.27;;;;;;;;;;5124911;28;20039;-57
2023/12/10 06:05:08;;;;;;;18.52;8.43;;;;;;;;;;5141386;28;20471;-59
2023/12/10 06:07:39;;;;;;;16.13;8.63;;;;;;;;;;5132662;28;20066;-57
2023/12/10 06:10:12;;;;;;;17.42;8.45;;;;;;;;;;5126748;28;20055;-59
2023/12/10 06:12:43;;;;;;;18.13;7.95;;;;;;;;;;5129141;28;20439;-59
2023/12/10 06:15:14;;;;;;;21.08;8.82;;;;;;;;;;5125028;28;20035;-59
2023/12/10 06:17:45;;;;;;;16.07;8.70;;;;;;;;;;5140948;28;20039;-60
2023/12/10 06:20:17;;;;;;;16.97;8.10;;;;;;;;;;5132417;28;20066;-59
2023/12/10 06:22:48;;;;;;;18.67;8.05;;;;;;;;;;5124612;28;20329;-59
2023/12/10 06:25:19;;;;;;;17.35;8.18;;;;;;;;;;5128106;28;20035;-59
2023/12/10 06:27:50;;;;;;;18.60;9.50;;;;;;;;;;5114680;29;20467;-58
2023/12/10 06:30:21;;;;;;;14.18;8.02;;;;;;;;;;5140217;28;20051;-58
2023/12/10 06:32:52;;;;;;;18.58;7.65;;;;;;;;;;5109137;29;20043;-59
2023/12/10 06:35:24;;;;;;;19.23;8.68;;;;;;;;;;5109031;28;20066;-59
2023/12/10 06:37:55;;;;;;;16.63;8.80;;;;;;;;;;5131606;28;20085;-60
2023/12/10 06:40:26;;;;;;;18.63;7.87;;;;;;;;;;5126708;28;20165;-58
2023/12/10 06:42:57;;;;;;;16.63;8.18;;;;;;;;;;5111965;28;20111;-58
2023/12/10 06:45:28;;;;;;;16.38;7.80;;;;;;;;;;5127141;28;20399;-58
2023/12/10 06:48:00;;;;;;;16.67;7.82;;;;;;;;;;5108377;29;20035;-58
2023/12/10 06:50:31;;;;;;;18.52;8.73;;;;;;;;;;5131733;28;20039;-58
2023/12/10 06:53:02;;;;;;;20.40;9.18;;;;;;;;;;5124659;28;20062;-58
2023/12/10 06:55:33;;;;;;;16.00;8.40;;;;;;;;;;5129250;28;20082;-58
2023/12/10 06:58:04;;;;;;;20.23;8.55;;;;;;;;;;5127739;28;20709;-57
2023/12/10 07:00:35;;;;;;;19.90;8.63;;;;;;;;;;5130897;28;20121;-57
2023/12/10 07:03:07;;;;;;;18.45;9.15;;;;;;;;;;5125265;28;20125;-58
2023/12/10 07:05:38;;;;;;;22.70;9.45;;;;;;;;;;5126922;28;20035;-58
2023/12/10 07:08:09;;;;;;;19.13;9.68;;;;;;;;;;5125986;28;20848;-58
2023/12/10 07:10:40;;;;;;;21.98;9.95;;;;;;;;;;5125189;28;20039;-59
2023/12/10 07:13:11;;;;;;;22.88;9.98;;;;;;;;;;5124050;28;20050;-58
2023/12/10 07:15:45;;;;;;;20.05;9.30;;;;;;;;;;5124922;28;20059;-58
2023/12/10 07:18:16;;;;;;;20.15;9.05;;;;;;;;;;5127940;28;20109;-58
2023/12/10 07:20:47;;;;;;;17.65;9.35;;;;;;;;;;5123985;28;20462;-58
2023/12/10 07:23:19;;;;;;;21.20;9.45;;;;;;;;;;5123551;28;20105;-58
2023/12/10 07:25:50;;;;;;;17.67;9.38;;;;;;;;;;5124377;28;20035;-59
2023/12/10 07:28:21;;;;;;;21.17;9.70;;;;;;;;;;5131324;28;20486;-58
2023/12/10 07:30:52;;;;;;;21.30;9.73;;;;;;;;;;5106815;29;20075;-58
2023/12/10 07:33:23;;;;;;;22.70;9.20;;;;;;;;;;5127504;28;20050;-58
2023/12/10 07:35:57;;;;;;;22.02;9.63;;;;;;;;;;5123518;28;20118;-59
2023/12/10 07:38:28;;;;;;;20.98;9.80;;;;;;;;;;5127597;28;20082;-58
2023/12/10 07:40:59;;;;;;;21.35;9.98;;;;;;;;;;5129808;28;20043;-58
2023/12/10 07:43:30;;;;;;;19.83;8.93;;;;;;;;;;5126394;28;20039;-57
2023/12/10 07:46:01;;;;;;;19.98;9.13;;;;;;;;;;5128724;28;20035;-59
2023/12/10 07:48:33;;;;;;;21.17;10.30;;;;;;;;;;5123163;28;20042;-58
2023/12/10 07:51:04;;;;;;;21.27;9.68;;;;;;;;;;5123443;28;20355;-58
2023/12/10 07:53:36;;;;;;;18.60;9.35;;;;;;;;;;5107142;28;20077;-58
2023/12/10 07:56:08;;;;;;;18.48;9.25;;;;;;;;;;5138834;28;20082;-58
2023/12/10 07:58:39;;;;;;;;;;;;;;;;;;5123254;28;20153;-58
2023/12/10 08:01:10;;;;;;;18.90;9.20;;;;;;;;;;5126018;28;19925;-57
2023/12/10 08:03:41;;;;;;;21.05;9.32;;;;;;;;;;5129686;28;20442;-57
2023/12/10 08:06:12;;;;;;;19.00;9.20;;;;;;;;;;5126454;28;20067;-58
2023/12/10 08:08:43;;;;;;;21.50;10.20;;;;;;;;;;5122905;28;20035;-59
2023/12/10 08:11:15;;;;;;;18.73;9.15;;;;;;;;;;5125201;28;20042;-58
2023/12/10 08:13:46;;;;;;;15.20;8.02;;;;;;;;;;5130967;28;20035;-59
2023/12/10 08:16:17;;;;;;;18.38;8.70;;;;;;;;;;5127109;28;20034;-59
2023/12/10 08:18:48;;;;;;;19.20;8.43;;;;;;;;;;5125372;28;20027;-59
2023/12/10 08:21:19;;;;;;;18.15;8.30;;;;;;;;;;5138705;28;20110;-59
2023/12/10 08:23:51;;;;;;;16.23;8.10;;;;;;;;;;5126374;28;20098;-59
2023/12/10 08:26:22;;;;;;;13.43;7.95;;;;;;;;;;5106929;29;20470;-59
2023/12/10 08:28:54;;;;;;;15.32;8.13;;;;;;;;;;5123166;28;20039;-59
2023/12/10 08:31:25;;;;;;;16.83;8.25;;;;;;;;;;5131885;28;20042;-59
2023/12/10 08:33:56;;;;;;;15.63;8.07;;;;;;;;;;5122334;28;20498;-59
2023/12/10 08:36:27;;;;;;;16.15;7.95;;;;;;;;;;5122123;28;20042;-58
2023/12/10 08:38:58;;;;;;;13.48;7.85;;;;;;;;;;5105818;29;20035;-59
2023/12/10 08:41:31;;;;;;;17.60;8.32;;;;;;;;;;5106136;28;20035;-60
2023/12/10 08:44:02;;;;;;;16.08;7.90;;;;;;;;;;5133744;28;20481;-60
2023/12/10 08:46:33;;;;;;;17.02;8.68;;;;;;;;;;5121699;28;20497;-59
2023/12/10 08:49:04;;;;;;;15.38;8.15;;;;;;;;;;5121746;28;20058;-59
2023/12/10 08:51:35;;;;;;;14.95;8.35;;;;;;;;;;5106032;28;20047;-59
2023/12/10 08:54:07;;;;;;;15.15;8.05;;;;;;;;;;5126191;28;20039;-59
2023/12/10 08:56:38;;;;;;;15.23;8.00;;;;;;;;;;5127534;28;20035;-59
2023/12/10 08:59:10;;;;;;;13.43;7.17;;;;;;;;;;5123315;28;20058;-59
2023/12/10 09:01:41;;;;;;;16.05;7.68;;;;;;;;;;5123305;28;20402;-58
2023/12/10 09:04:12;;;;;;;17.35;8.38;;;;;;;;;;5128814;28;20047;-57
2023/12/10 09:06:43;;;;;;;15.55;8.73;;;;;;;;;;5120681;28;20058;-58
2023/12/10 09:09:14;;;;;;;14.70;8.10;;;;;;;;;;5121299;28;20071;-58
2023/12/10 09:11:47;;;;;;;14.68;7.40;;;;;;;;;;5113056;28;20051;-58
2023/12/10 09:14:18;;;;;;;13.02;7.10;;;;;;;;;;5121403;28;20079;-59
2023/12/10 09:16:49;;;;;;;16.90;7.90;;;;;;;;;;5127147;28;20440;-60
2023/12/10 09:19:21;;;;;;;14.17;7.57;;;;;;;;;;5106803;29;20043;-58
2023/12/10 09:21:52;;;;;;;14.23;7.78;;;;;;;;;;5127552;28;20085;-58
2023/12/10 09:24:23;;;;;;;12.95;6.88;;;;;;;;;;5141330;28;20058;-59
2023/12/10 09:26:56;;;;;;;17.10;7.53;;;;;;;;;;5143957;28;20043;-58
2023/12/10 09:29:27;;;;;;;18.00;7.90;;;;;;;;;;5122068;28;20046;-58
2023/12/10 09:31:58;;;;;;;14.18;7.28;;;;;;;;;;5105760;28;20043;-59
2023/12/10 09:34:29;;;;;;;14.02;7.35;;;;;;;;;;5111864;29;20130;-59
2023/12/10 09:37:01;;;;;;;13.50;7.13;;;;;;;;;;5108419;28;20043;-58
2023/12/10 09:39:32;;;;;;;14.27;7.75;;;;;;;;;;5105615;29;20043;-59
2023/12/10 09:42:03;;;;;;;14.43;8.33;;;;;;;;;;5138843;28;20043;-59
2023/12/10 09:44:35;;;;;;;13.63;7.38;;;;;;;;;;5122619;28;20069;-59
2023/12/10 09:47:10;;;;;;;14.27;7.05;;;;;;;;;;5118633;28;20040;-58
2023/12/10 09:49:42;;;;;;;11.90;7.22;;;;;;;;;;5137904;28;20122;-57
2023/12/10 09:52:13;;;;;;;14.15;7.43;;;;;;;;;;5137700;28;20363;-57
2023/12/10 09:54:44;;;;;;;12.27;7.27;;;;;;;;;;5112797;28;20047;-57
2023/12/10 09:57:16;;;;;;;12.38;6.85;;;;;;;;;;5107243;28;20066;-57
2023/12/10 09:59:48;;;;;;;12.43;7.50;;;;;;;;;;5137203;28;20047;-57
2023/12/10 10:02:19;;;;;;;13.35;6.57;;;;;;;;;;5122182;28;20405;-58
2023/12/10 10:04:50;;;;;;;12.68;7.28;;;;;;;;;;5123441;28;20122;-58
2023/12/10 10:07:21;;;;;;;13.50;6.95;;;;;;;;;;5138056;28;20035;-58
2023/12/10 10:09:52;;;;;;;11.63;6.88;;;;;;;;;;5131946;28;20039;-58
2023/12/10 10:12:29;;;;;;;11.70;6.37;;;;;;;;;;5121471;28;20035;-57
2023/12/10 10:15:01;;;;;;;9.85;6.07;;;;;;;;;;5121776;28;20043;-57
2023/12/10 10:17:33;;;;;;;11.43;6.22;;;;;;;;;;5119669;28;20036;-58
2023/12/10 10:20:04;;;;;;;14.60;6.95;;;;;;;;;;5147710;28;20548;-57
2023/12/10 10:22:36;;;;;;;10.32;6.00;;;;;;;;;;5131981;28;20390;-58
2023/12/10 10:25:07;;;;;;;11.70;6.37;;;;;;;;;;5124766;28;20478;-57
2023/12/10 10:27:38;;;;;;;11.07;5.57;;;;;;;;;;5124283;28;20039;-58
2023/12/10 10:30:10;;;;;;;11.57;5.57;;;;;;;;;;5141789;28;20459;-58
2023/12/10 10:32:41;;;;;;;;;;;;;;;;;;5111162;28;20106;-59
2023/12/10 10:35:12;;;;;;;11.77;5.95;;;;;;;;;;5128806;28;20329;-59
2023/12/10 10:37:44;;;;;;;12.80;6.43;;;;;;;;;;5130726;28;20058;-59
2023/12/10 10:40:15;;;;;;;9.23;5.45;;;;;;;;;;5128132;28;20355;-59
2023/12/10 10:42:47;;;;;;;8.65;5.22;;;;;;;;;;5124280;28;20043;-60
2023/12/10 10:45:18;;;;;;;10.27;6.25;;;;;;;;;;5129166;28;20101;-56
2023/12/10 10:47:49;;;;;;;11.52;6.18;;;;;;;;;;5124468;28;20069;-58
2023/12/10 10:50:21;;;;;;;9.17;5.73;;;;;;;;;;5128064;28;20051;-56
2023/12/10 10:52:56;;;;;;;9.50;5.57;;;;;;;;;;5124131;28;20049;-58
2023/12/10 10:55:27;;;;;;;9.80;6.18;;;;;;;;;;5127548;28;20072;-57
2023/12/10 10:57:59;;;;;;;8.52;5.45;;;;;;;;;;5140855;28;20035;-58
2023/12/10 11:00:30;;;;;;;12.10;6.00;;;;;;;;;;5108266;29;20050;-58
2023/12/10 11:03:03;;;;;;;9.63;5.72;;;;;;;;;;5130598;28;20054;-59
2023/12/10 11:05:34;;;;;;;8.50;5.03;;;;;;;;;;5128978;28;20039;-58
2023/12/10 11:08:06;;;;;;;11.05;5.75;;;;;;;;;;5107651;28;20097;-58
2023/12/10 11:10:43;;;;;;;9.77;5.28;;;;;;;;;;5123405;28;20043;-58
2023/12/10 11:13:14;;;;;;;9.43;5.63;;;;;;;;;;5123556;28;20101;-59
2023/12/10 11:15:57;;;;;;;6.68;4.50;;;;;;;;;;5127995;28;20510;-58
2023/12/10 11:18:28;;;;;;;8.82;4.68;;;;;;;;;;5116614;28;20101;-58
2023/12/10 11:20:59;;;;;;;10.43;4.88;;;;;;;;;;5115570;28;20083;-58
2023/12/10 11:23:30;;;;;;;8.85;4.18;;;;;;;;;;5141005;28;20045;-57
2023/12/10 11:26:01;;;;;;;5.35;2.83;;;;;;;;;;5122170;28;20039;-59
2023/12/10 11:28:33;;;;;;;5.85;2.97;;;;;;;;;;5130022;28;20422;-60
2023/12/10 11:31:04;;;;;;;4.77;2.70;;;;;;;;;;5131710;28;20039;-60
2023/12/10 11:33:40;;;;;;;3.08;1.90;;;;;;;;;;5125900;28;20481;-60
2023/12/10 11:36:12;;;;;;;9.52;2.45;;;;;;;;;;5104516;29;20114;-59
2023/12/10 11:38:46;;;;;;;4.80;1.73;;;;;;;;;;5113837;28;20051;-58
2023/12/10 11:41:18;;;;;;;5.70;2.22;;;;;;;;;;5125662;28;20043;-60
2023/12/10 11:43:50;;;;;;;4.38;1.85;;;;;;;;;;5109527;29;20706;-60
2023/12/10 11:46:24;;;;;;;3.60;1.80;;;;;;;;;;5122797;28;20399;-60
2023/12/10 11:48:56;;;;;;;3.88;1.75;;;;;;;;;;5106270;29;20049;-61
2023/12/10 11:51:27;;;;;;;5.32;2.47;;;;;;;;;;5106922;29;20081;-60
2023/12/10 11:53:58;;;;;;;2.65;1.60;;;;;;;;;;5122938;28;20051;-60
2023/12/10 11:56:29;;;;;;;2.53;1.80;;;;;;;;;;5105246;29;20447;-58
2023/12/10 11:59:01;;;;;;;3.92;1.90;;;;;;;;;;5141361;28;20446;-60
2023/12/10 12:01:32;;;;;;;2.90;1.88;;;;;;;;;;5122346;29;20162;-59
2023/12/10 12:04:05;;;;;;;7.10;2.10;;;;;;;;;;5122053;28;20086;-59
2023/12/10 12:06:35;;;;;;;;;;;;;;;;;;5121818;29;20035;-59
2023/12/10 12:09:08;;;;;;;2.67;1.80;;;;;;;;;;5105678;28;19922;-59
2023/12/10 12:11:39;;;;;;;;;;;;;;;;;;5122557;29;20047;-59
2023/12/10 12:14:16;;;;;;;4.10;2.25;;;;;;;;;;5122767;28;19925;-60
2023/12/10 12:16:47;;;;;;;4.53;1.63;;;;;;;;;;5107040;29;20313;-58
2023/12/10 12:19:28;;;;;;;3.40;1.83;;;;;;;;;;5114222;28;20478;-58
2023/12/10 12:22:00;;;;;;;4.88;1.90;;;;;;;;;;5122267;28;20039;-59
2023/12/10 12:24:31;;;;;;;4.60;2.60;;;;;;;;;;5102608;29;20571;-59
2023/12/10 12:27:02;;;;;;;5.60;2.43;;;;;;;;;;5122373;28;20050;-59
2023/12/10 12:29:34;;;;;;;5.03;2.28;;;;;;;;;;5122578;29;20047;-58
2023/12/10 12:32:05;;;;;;;6.55;2.58;;;;;;;;;;5140379;28;20067;-60
2023/12/10 12:34:37;;;;;;;6.65;2.65;;;;;;;;;;5133252;28;20561;-61
2023/12/10 12:37:08;;;;;;;4.28;2.70;;;;;;;;;;5138445;28;20133;-58
2023/12/10 12:39:39;;;;;;;7.65;2.53;;;;;;;;;;5122906;29;20405;-59
2023/12/10 12:42:10;;;;;;;6.32;2.90;;;;;;;;;;5104842;29;20066;-60
2023/12/10 12:44:41;;;;;;;5.78;2.30;;;;;;;;;;5121783;28;20089;-59
2023/12/10 12:47:12;;;;;;;3.70;2.33;;;;;;;;;;5105575;29;20045;-59
2023/12/10 12:49:44;;;;;;;6.05;2.65;;;;;;;;;;5105430;29;20462;-59
2023/12/10 12:52:15;;;;;;;3.20;2.30;;;;;;;;;;5121759;28;20454;-59
2023/12/10 12:54:46;;;;;;;6.87;3.00;;;;;;;;;;5137790;28;20039;-59
2023/12/10 12:57:17;;;;;;;4.75;2.72;;;;;;;;;;5122698;28;20374;-59
2023/12/10 12:59:48;;;;;;;7.00;3.17;;;;;;;;;;5122159;28;20092;-59
2023/12/10 13:02:19;;;;;;;5.47;3.00;;;;;;;;;;5121954;29;20055;-60
2023/12/10 13:04:50;;;;;;;7.77;4.10;;;;;;;;;;5122154;28;20118;-58
2023/12/10 13:07:22;;;;;;;7.73;4.07;;;;;;;;;;5106419;29;20069;-58
2023/12/10 13:09:53;;;;;;;6.80;3.85;;;;;;;;;;5122381;28;20490;-59
2023/12/10 13:12:24;;;;;;;7.00;3.20;;;;;;;;;;5121513;28;20046;-58
2023/12/10 13:14:55;;;;;;;7.03;2.85;;;;;;;;;;5121757;28;20049;-58
2023/12/10 13:17:26;;;;;;;8.03;3.13;;;;;;;;;;5137874;28;20044;-59
2023/12/10 13:19:57;;;;;;;5.33;2.80;;;;;;;;;;5122149;28;20402;-58
2023/12/10 13:22:28;;;;;;;4.53;2.37;;;;;;;;;;5143269;28;20497;-58
2023/12/10 13:25:01;;;;;;;6.28;2.90;;;;;;;;;;5121440;28;20536;-58
2023/12/10 13:27:32;;;;;;;8.15;3.28;;;;;;;;;;5106341;29;20122;-58
2023/12/10 13:30:03;;;;;;;5.32;2.40;;;;;;;;;;5121839;28;20042;-59
2023/12/10 13:32:35;;;;;;;7.43;2.50;;;;;;;;;;5106166;28;20066;-59
2023/12/10 13:35:07;;;;;;;7.55;2.75;;;;;;;;;;5106035;29;20050;-58
2023/12/10 13:37:38;;;;;;;8.35;3.38;;;;;;;;;;5121685;28;20054;-58
2023/12/10 13:40:10;;;;;;;6.30;2.67;;;;;;;;;;5106441;28;20043;-58
2023/12/10 13:42:42;;;;;;;4.35;2.22;;;;;;;;;;5125516;28;20047;-59
2023/12/10 13:45:13;;;;;;;5.80;2.63;;;;;;;;;;5121701;29;20127;-58
2023/12/10 13:47:44;;;;;;;4.40;2.08;;;;;;;;;;5121958;28;20039;-58
2023/12/10 13:50:15;;;;;;;3.00;1.80;;;;;;;;;;5121743;28;20043;-58
2023/12/10 13:52:46;;;;;;;4.45;2.08;;;;;;;;;;5107139;29;20071;-58
2023/12/10 13:55:17;;;;;;;4.90;2.50;;;;;;;;;;5125411;28;20043;-59
2023/12/10 13:57:48;;;;;;;6.45;2.10;;;;;;;;;;5113295;29;20047;-58
2023/12/10 14:00:20;;;;;;;5.33;2.37;;;;;;;;;;5108573;28;20046;-59
2023/12/10 14:02:51;;;;;;;4.47;1.93;;;;;;;;;;5123552;28;20115;-59
2023/12/10 14:05:22;;;;;;;2.65;1.27;;;;;;;;;;5127966;28;20379;-59
2023/12/10 14:07:53;;;;;;;4.25;1.42;;;;;;;;;;5129833;28;20066;-60
2023/12/10 14:10:24;;;;;;;3.07;1.87;;;;;;;;;;5129234;28;20082;-59
2023/12/10 14:12:55;;;;;;;3.15;1.67;;;;;;;;;;5128698;28;20756;-60
2023/12/10 14:15:27;;;;;;;3.70;1.70;;;;;;;;;;5123954;28;20134;-59
2023/12/10 14:17:58;;;;;;;4.50;1.92;;;;;;;;;;5112103;28;20031;-59
2023/12/10 14:20:29;;;;;;;5.07;1.90;;;;;;;;;;5124396;28;20047;-59
2023/12/10 14:23:00;;;;;;;3.75;2.05;;;;;;;;;;5124117;28;20282;-59
2023/12/10 14:25:31;;;;;;;3.10;2.17;;;;;;;;;;5133992;28;20538;-59
2023/12/10 14:28:03;;;;;;;4.57;2.65;;;;;;;;;;5124157;28;20482;-58
2023/12/10 14:30:34;;;;;;;7.40;2.73;;;;;;;;;;5124027;28;20107;-59
2023/12/10 14:33:05;;;;;;;8.73;2.53;;;;;;;;;;5124393;28;20163;-59
2023/12/10 14:35:36;;;;;;;4.40;2.33;;;;;;;;;;5108516;29;20603;-58
2023/12/10 14:38:07;;;;;;;4.78;2.33;;;;;;;;;;5123469;28;20039;-59
2023/12/10 14:40:39;;;;;;;4.97;2.15;;;;;;;;;;5140058;28;20114;-59
2023/12/10 14:43:10;;;;;;;6.53;2.37;;;;;;;;;;5133519;28;20043;-59
2023/12/10 14:45:41;;;;;;;7.40;2.55;;;;;;;;;;5124283;28;20269;-58
2023/12/10 14:48:12;;;;;;;3.65;2.20;;;;;;;;;;5140002;28;20039;-59
2023/12/10 14:50:44;;;;;;;4.27;1.97;;;;;;;;;;5124129;28;20047;-58
2023/12/10 14:53:15;;;;;;;6.00;2.35;;;;;;;;;;5107159;28;20281;-58
2023/12/10 14:55:46;;;;;;;4.87;2.23;;;;;;;;;;5139807;28;20094;-58
2023/12/10 14:58:17;;;;;;;3.47;2.20;;;;;;;;;;5140201;28;20494;-58
2023/12/10 15:00:48;;;;;;;4.00;2.05;;;;;;;;;;5123933;28;20080;-59
2023/12/10 15:03:21;;;;;;;5.47;2.30;;;;;;;;;;5107127;28;20491;-61